Airfield :
LOGIN :

Register | Disclaimer

   EN    FR    IT 

 










Legend :    VFR   Marginal VFR   IFR   Intensive IFR   Very Intensive IFR
Visi :
Ceiling :
>= 8 km
>= 3000ft
5 to 8 km
1000 to 3000 ft
1500m to 5 km
500 to 1000 ft
800 to 1500m
200 to 500 ft
< 800m
< 200 ft
Symbols :   Thunderstorms  Fog  Heavy snow  Heavy precipitations  Wind > 20 kt
SIGMETs :     Misc.  Thunderstorms  Icing  Turbulence  Mountain Waves  Volcanic Ashes






- Airport Elevation : 327 ft
- IATA code : BHX


EGBB - Birmingham

CURRENT METAR :
  • 210520Z VRB01KT 9999 BKN019 M01/M01 Q1042

EXPIRED METARs :
  • 210450Z 31002KT 9000 MIFG SCT020 00/M00 Q1042
  • 210420Z VRB01KT 9000 MIFG NSC 01/00 Q1042
  • 210350Z 26003KT 9000 MIFG NSC 02/01 Q1042
  • 210320Z 28001KT 9000 MIFG NSC M00/M01 Q1042
  • 210250Z 27002KT 9000 MIFG NSC 00/M01 Q1042
  • 210220Z 27004KT 9000 MIFG NSC 02/01 Q1042

TAF TAF EGBB
Valid from the 21 at 00:00 until the 22 at 00:00 UTC


202306Z 2100/2124 25004KT 9999 FEW045
TEMPO 2100/2110 2000 BR BCFG
PROB40
TEMPO 2101/2110 0200 FZFG FG BKN001
BECMG 2116/2118 8000 BKN010
PROB30
TEMPO 2119/2124 BKN006
ATIS : +44 121 780 0910



MET'MAP, your aeronautical weather chart ! - Copyright ORBIFLY December 2007 - Disclaimer

ORBIFLY MET'MAP TEAM :

Programming & Development : Alexandra Zaïnal
Concept & original design : Baudouin d'Aumeries
Assistance for programming : Marc-Olivier Méhu
Technical & hardware support : Manuel Goepfert

Contact : metmap@orbifly.com




SOURCES & CREDITS :

   NOAA